Time;durP1;ratioP1;P1;durP2;ratioP2;P2;SDS_P1;SDS_P2;PMS_P1;PMS_P2;Temp;Humidity;BMP_temperature;BMP_pressure;BME280_temperature;BME280_humidity;BME280_pressure;Samples;Min_cycle;Max_cycle;Signal;HPM_P1;HPM_P2
2023/02/06 00:01:04;;;;;;;;;;;;;;;1.93;45.69;104008.00;4985376;28;19948;-82
2023/02/06 00:03:29;;;;;;;;;;;;;;;1.90;45.68;103997.66;4983926;28;19928;-82
2023/02/06 00:05:56;;;;;;;;;;;;;;;1.89;45.79;103995.97;4984283;28;19925;-81
2023/02/06 00:08:21;;;;;;;;;;;;;;;1.89;45.77;104001.28;4987436;28;19996;-82
2023/02/06 00:10:47;;;;;;;;;;;;;;;1.87;45.80;104005.81;4984020;28;19918;-82
2023/02/06 00:13:12;;;;;;;;;;;;;;;1.86;45.41;104013.88;4987168;28;20268;-81
2023/02/06 00:15:38;;;;;;;;;;;;;;;1.82;45.73;104015.91;4982812;28;20009;-82
2023/02/06 00:18:03;;;;;;;;;;;;;;;1.78;45.68;104003.84;4986686;28;19992;-82
2023/02/06 00:20:28;;;;;;;;;;;;;;;1.77;45.49;104012.72;4984467;28;19925;-81
2023/02/06 00:22:54;;;;;;;;;;;;;;;1.74;45.46;104011.16;4984311;28;20419;-82
2023/02/06 00:25:19;;;;;;;;;;;;;;;1.70;45.65;104011.47;4985691;28;20003;-81
2023/02/06 00:27:44;;;;;;;;;;;;;;;1.69;45.60;104015.09;4985909;28;20335;-81
2023/02/06 00:30:10;;;;;;;;;;;;;;;1.66;45.58;104005.56;4987089;28;19928;-81
2023/02/06 00:32:35;;;;;;;;;;;;;;;1.65;45.42;104006.53;4986078;28;19928;-82
2023/02/06 00:35:01;;;;;;;;;;;;;;;1.62;46.08;104008.56;4967660;28;19918;-81
2023/02/06 00:37:26;;;;;;;;;;;;;;;1.60;45.72;104018.38;4984720;28;19917;-81
2023/02/06 00:39:52;;;;;;;;;;;;;;;1.58;45.87;104020.28;4983726;28;20427;-82
2023/02/06 00:42:17;;;;;;;;;;;;;;;1.56;45.85;104027.47;4981234;28;19945;-81
2023/02/06 00:44:43;;;;;;;;;;;;;;;1.54;45.88;104024.94;4985738;28;19975;-82
2023/02/06 00:47:08;;;;;;;;;;;;;;;1.53;46.20;104015.31;4988431;28;19917;-82
2023/02/06 00:49:33;;;;;;;;;;;;;;;1.54;46.20;104010.88;4989571;28;19965;-82
2023/02/06 00:51:59;;;;;;;;;;;;;;;1.54;45.83;104005.59;4983652;28;20172;-81
2023/02/06 00:54:24;;;;;;;;;;;;;;;1.55;45.79;104012.56;4985652;28;19918;-81
2023/02/06 00:56:49;;;;;;;;;;;;;;;1.55;45.82;104018.69;4980683;28;19972;-82
2023/02/06 00:59:15;;;;;;;;;;;;;;;1.54;46.00;104022.28;4980932;28;20123;-82
2023/02/06 01:01:40;;;;;;;;;;;;;;;1.56;46.00;104024.81;4989803;28;19971;-82
2023/02/06 01:04:06;;;;;;;;;;;;;;;1.57;45.87;104021.22;4986815;28;19925;-82
2023/02/06 01:06:31;;;;;;;;;;;;;;;1.58;45.96;104022.91;4982989;28;19932;-81
2023/02/06 01:08:56;;;;;;;;;;;;;;;1.59;46.35;104029.88;4982809;28;19972;-82
2023/02/06 01:11:23;;;;;;;;;;;;;;;1.59;46.30;104025.44;4984009;28;20164;-82
2023/02/06 01:13:49;;;;;;;;;;;;;;;1.62;46.30;104019.13;4981989;28;19945;-82
2023/02/06 01:16:16;;;;;;;;;;;;;;;1.65;45.96;104016.25;4983572;28;19921;-82
2023/02/06 01:18:41;;;;;;;;;;;;;;;1.67;46.04;104017.00;4986310;28;19995;-82
2023/02/06 01:21:15;;;;;;;;;;;;;;;1.67;46.29;104007.25;4988572;28;19917;-82
2023/02/06 01:23:40;;;;;;;;;;;;;;;1.67;46.19;103998.50;4982408;28;19944;-82
2023/02/06 01:26:06;;;;;;;;;;;;;;;1.68;46.15;103995.75;4989013;28;19944;-81
2023/02/06 01:28:34;;;;;;;;;;;;;;;1.69;46.47;103992.13;4983253;28;19936;-81
2023/02/06 01:31:00;;;;;;;;;;;;;;;1.70;46.50;103990.34;4985653;28;20425;-82
2023/02/06 01:33:25;;;;;;;;;;;;;;;1.73;46.27;103984.81;4980377;28;19968;-82
2023/02/06 01:35:55;;;;;;;;;;;;;;;1.75;46.59;103983.75;4969889;28;19917;-82
2023/02/06 01:38:20;;;;;;;;;;;;;;;1.77;46.68;103971.25;4986522;28;20382;-82
2023/02/06 01:40:45;;;;;;;;;;;;;;;1.81;46.69;103983.31;4987742;28;20077;-82
2023/02/06 01:43:16;;;;;;;;;;;;;;;1.84;46.44;103965.56;4968753;28;19918;-82
2023/02/06 01:45:44;;;;;;;;;;;;;;;1.87;46.50;103960.03;4987843;28;19932;-82
2023/02/06 01:48:12;;;;;;;;;;;;;;;1.91;46.40;103953.56;4983465;28;19918;-82
2023/02/06 01:50:39;;;;;;;;;;;;;;;1.93;46.45;103955.13;4989495;28;19922;-82
2023/02/06 01:53:05;;;;;;;;;;;;;;;1.96;46.52;103956.69;4984848;28;19976;-82
2023/02/06 01:55:31;;;;;;;;;;;;;;;1.95;46.45;103953.22;4988039;28;21180;-82
2023/02/06 01:57:58;;;;;;;;;;;;;;;1.97;46.40;103953.09;4987267;28;20368;-82
2023/02/06 02:00:23;;;;;;;;;;;;;;;1.97;46.54;103946.00;4986997;28;19925;-82
2023/02/06 02:02:49;;;;;;;;;;;;;;;1.98;46.57;103942.44;4988308;28;20062;-82
2023/02/06 02:05:16;;;;;;;;;;;;;;;2.00;46.77;103937.03;4985543;28;19921;-82
2023/02/06 02:07:45;;;;;;;;;;;;;;;2.01;46.54;103936.91;4987427;28;19926;-82
2023/02/06 02:10:11;;;;;;;;;;;;;;;2.02;46.84;103930.66;4991689;28;19922;-82
2023/02/06 02:12:36;;;;;;;;;;;;;;;2.02;46.73;103921.88;4987043;28;19964;-82
2023/02/06 02:15:02;;;;;;;;;;;;;;;2.01;46.48;103913.09;4987019;28;19925;-82
2023/02/06 02:17:37;;;;;;;;;;;;;;;2.01;46.64;103914.91;4987555;28;19928;-82
2023/02/06 02:20:11;;;;;;;;;;;;;;;1.98;46.55;103913.34;4988348;28;20327;-82
2023/02/06 02:22:43;;;;;;;;;;;;;;;1.96;46.62;103909.09;4987462;28;19918;-82
2023/02/06 02:25:31;;;;;;;;;;;;;;;1.96;46.92;103907.28;4988441;28;19924;-82
2023/02/06 02:28:08;;;;;;;;;;;;;;;1.97;46.62;103908.13;4986057;28;19918;-82
2023/02/06 02:30:37;;;;;;;;;;;;;;;1.94;46.56;103908.38;4987744;28;19952;-82
2023/02/06 02:33:17;;;;;;;;;;;;;;;1.91;46.97;103912.09;4985469;28;20461;-82
2023/02/06 02:35:55;;;;;;;;;;;;;;;1.89;47.17;103919.28;4986105;28;20318;-82
2023/02/06 02:38:24;;;;;;;;;;;;;;;1.92;47.13;103916.41;4985529;28;19922;-82
2023/02/06 02:41:01;;;;;;;;;;;;;;;1.96;47.15;103912.59;4988103;28;19921;-82
2023/02/06 02:43:33;;;;;;;;;;;;;;;2.00;46.97;103914.06;4986112;28;19921;-82
2023/02/06 02:46:04;;;;;;;;;;;;;;;2.02;46.88;103914.78;4983728;28;19925;-82
2023/02/06 02:48:41;;;;;;;;;;;;;;;2.06;46.99;103923.34;4982240;28;19928;-82
2023/02/06 02:51:07;;;;;;;;;;;;;;;2.09;46.90;103915.16;4985360;28;19946;-82
2023/02/06 02:53:33;;;;;;;;;;;;;;;2.15;47.03;103916.50;4983360;28;19932;-82
2023/02/06 02:55:59;;;;;;;;;;;;;;;2.17;46.97;103904.88;4984446;28;20288;-82
2023/02/06 02:58:27;;;;;;;;;;;;;;;2.22;46.83;103901.88;4987022;28;20639;-82
2023/02/06 03:01:01;;;;;;;;;;;;;;;2.25;46.99;103893.69;4983995;28;19928;-82
2023/02/06 03:03:27;;;;;;;;;;;;;;;2.26;47.02;103898.88;4986212;28;19922;-82
2023/02/06 03:06:28;;;;;;;;;;;;;;;2.30;47.24;103884.44;4984932;28;19929;-82
2023/02/06 03:08:54;;;;;;;;;;;;;;;2.35;47.13;103892.06;4967293;28;19928;-82
2023/02/06 03:11:20;;;;;;;;;;;;;;;2.39;47.26;103880.28;4976441;28;19926;-82
2023/02/06 03:13:52;;;;;;;;;;;;;;;2.42;47.16;103887.97;4983366;28;20362;-82
2023/02/06 03:16:34;;;;;;;;;;;;;;;2.47;47.12;103880.50;4983219;28;19921;-82
2023/02/06 03:19:00;;;;;;;;;;;;;;;2.49;47.29;103883.88;4983075;28;19928;-82
2023/02/06 03:21:26;;;;;;;;;;;;;;;2.53;47.21;103887.16;4985539;28;20327;-82
2023/02/06 03:23:54;;;;;;;;;;;;;;;2.57;47.13;103892.09;4985718;28;20614;-82
2023/02/06 03:26:23;;;;;;;;;;;;;;;2.59;47.39;103898.09;5013187;22;19941;-81
2023/02/06 03:28:50;;;;;;;;;;;;;;;2.62;47.15;103891.72;5022413;28;19929;-81
2023/02/06 03:31:23;;;;;;;;;;;;;;;2.66;47.28;103895.81;5022253;28;19922;-80
2023/02/06 03:33:51;;;;;;;;;;;;;;;2.70;47.47;103897.28;5026331;28;19925;-81
2023/02/06 03:36:17;;;;;;;;;;;;;;;2.74;47.15;103906.66;5026261;28;20013;-81
2023/02/06 03:38:47;;;;;;;;;;;;;;;2.77;47.33;103900.28;5019687;28;20046;-81
2023/02/06 03:41:14;;;;;;;;;;;;;;;2.80;47.26;103907.97;5022662;28;19940;-81
2023/02/06 03:43:42;;;;;;;;;;;;;;;2.86;47.26;103910.97;5021472;28;20126;-81
2023/02/06 03:46:11;;;;;;;;;;;;;;;2.92;47.04;103913.19;5024692;28;19917;-81
2023/02/06 03:48:39;;;;;;;;;;;;;;;2.96;46.69;103908.47;5017729;28;19964;-81
2023/02/06 03:51:29;;;;;;;;;;;;;;;2.98;46.93;103915.34;5018338;28;19921;-81
2023/02/06 03:53:57;;;;;;;;;;;;;;;2.95;46.74;103912.09;5017691;28;19925;-81
2023/02/06 03:56:33;;;;;;;;;;;;;;;2.97;47.07;103921.59;5021053;28;20012;-81
2023/02/06 03:58:59;;;;;;;;;;;;;;;2.99;46.81;103908.22;5019248;28;20297;-80
2023/02/06 04:01:25;;;;;;;;;;;;;;;2.99;46.77;103897.63;5019414;28;20008;-80
2023/02/06 04:03:50;;;;;;;;;;;;;;;3.02;46.56;103892.94;5019005;28;19925;-80
2023/02/06 04:06:16;;;;;;;;;;;;;;;3.07;46.13;103889.94;5020331;28;20291;-81
2023/02/06 04:08:41;;;;;;;;;;;;;;;3.03;46.17;103877.88;5019157;28;19936;-81
2023/02/06 04:11:06;;;;;;;;;;;;;;;2.99;46.46;103877.28;5019195;28;20366;-81
2023/02/06 04:13:32;;;;;;;;;;;;;;;2.97;46.64;103875.72;5019857;28;19925;-81
2023/02/06 04:15:57;;;;;;;;;;;;;;;2.99;46.32;103874.63;5021864;28;20398;-81
2023/02/06 04:18:23;;;;;;;;;;;;;;;2.99;46.47;103868.50;5020196;28;20600;-81
2023/02/06 04:20:51;;;;;;;;;;;;;;;3.02;46.75;103865.59;5019259;28;19925;-80
2023/02/06 04:23:16;;;;;;;;;;;;;;;3.05;46.42;103865.34;5018484;28;19921;-81
2023/02/06 04:25:42;;;;;;;;;;;;;;;3.05;46.45;103860.03;5019767;28;20139;-82
2023/02/06 04:28:07;;;;;;;;;;;;;;;3.06;46.62;103856.47;5019613;28;19921;-81
2023/02/06 04:30:32;;;;;;;;;;;;;;;3.08;46.48;103864.28;5021252;28;20574;-81
2023/02/06 04:32:58;;;;;;;;;;;;;;;3.07;46.54;103868.75;5021817;28;19926;-81
2023/02/06 04:35:23;;;;;;;;;;;;;;;3.08;46.73;103843.94;5022220;28;19928;-80
2023/02/06 04:37:52;;;;;;;;;;;;;;;3.15;46.82;103863.66;5019492;28;19968;-80
2023/02/06 04:40:17;;;;;;;;;;;;;;;3.20;46.85;103866.78;5020264;28;20452;-81
2023/02/06 04:42:42;;;;;;;;;;;;;;;3.27;47.09;103865.34;5016729;28;19958;-82
2023/02/06 04:45:14;;;;;;;;;;;;;;;3.31;46.94;103872.06;5017046;28;20012;-81
2023/02/06 04:47:40;;;;;;;;;;;;;;;3.37;46.81;103862.75;5002447;28;19917;-81
2023/02/06 04:50:06;;;;;;;;;;;;;;;3.44;46.97;103865.78;5017173;28;19933;-81
2023/02/06 04:52:31;;;;;;;;;;;;;;;3.48;46.80;103870.69;5018573;28;19933;-81
2023/02/06 04:54:56;;;;;;;;;;;;;;;3.53;46.93;103865.00;5018810;28;20381;-81
2023/02/06 04:57:24;;;;;;;;;;;;;;;3.55;46.91;103852.47;5014743;28;19971;-80
2023/02/06 04:59:49;;;;;;;;;;;;;;;3.57;46.83;103855.84;5011661;28;20007;-82
2023/02/06 05:02:15;;;;;;;;;;;;;;;3.56;46.87;103854.16;5012372;28;19929;-82
2023/02/06 05:04:40;;;;;;;;;;;;;;;3.57;47.12;103846.06;5011692;28;20718;-81
2023/02/06 05:07:06;;;;;;;;;;;;;;;3.61;47.08;103852.00;5014035;28;19924;-81
2023/02/06 05:09:31;;;;;;;;;;;;;;;3.65;46.94;103856.06;5014642;28;20410;-81
2023/02/06 05:11:56;;;;;;;;;;;;;;;3.69;47.24;103859.28;5017201;28;20307;-80
2023/02/06 05:14:22;;;;;;;;;;;;;;;3.72;47.16;103854.56;5017865;28;19917;-81
2023/02/06 05:16:47;;;;;;;;;;;;;;;3.74;47.05;103857.94;5019558;28;19964;-81
2023/02/06 05:19:13;;;;;;;;;;;;;;;3.76;47.04;103866.59;5023682;28;19917;-81
2023/02/06 05:21:38;;;;;;;;;;;;;;;3.77;47.29;103863.03;5021458;28;19936;-81
2023/02/06 05:24:04;;;;;;;;;;;;;;;3.79;47.40;103869.03;5022798;28;19943;-81
2023/02/06 05:26:29;;;;;;;;;;;;;;;3.79;47.19;103858.41;5018561;28;20305;-80
2023/02/06 05:28:55;;;;;;;;;;;;;;;3.77;47.33;103870.97;5019296;28;20186;-81
2023/02/06 05:31:20;;;;;;;;;;;;;;;3.78;47.47;103863.84;5024002;28;19966;-81
2023/02/06 05:33:46;;;;;;;;;;;;;;;3.82;47.47;103860.81;5018479;28;20553;-82
2023/02/06 05:36:12;;;;;;;;;;;;;;;3.87;47.30;103861.25;5018360;28;19940;-82
2023/02/06 05:38:37;;;;;;;;;;;;;;;3.88;47.44;103865.59;5018264;28;20358;-82
2023/02/06 05:41:03;;;;;;;;;;;;;;;3.92;47.43;103868.84;5021013;28;19932;-81
2023/02/06 05:43:28;;;;;;;;;;;;;;;3.93;47.31;103874.00;5017555;28;19917;-81
2023/02/06 05:45:54;;;;;;;;;;;;;;;3.95;47.30;103881.88;5020052;28;20287;-82
2023/02/06 05:48:19;;;;;;;;;;;;;;;3.96;46.97;103872.09;5019530;28;19928;-81
2023/02/06 05:50:47;;;;;;;;;;;;;;;3.93;47.02;103881.97;5019359;28;20298;-82
2023/02/06 05:53:13;;;;;;;;;;;;;;;3.92;47.17;103877.63;5021994;28;19917;-82
2023/02/06 05:55:38;;;;;;;;;;;;;;;3.94;46.78;103878.34;5021468;28;19932;-81
2023/02/06 05:58:03;;;;;;;;;;;;;;;3.90;46.91;103884.88;5017130;28;19944;-82
2023/02/06 06:00:29;;;;;;;;;;;;;;;3.90;46.96;103890.19;5021110;28;19921;-82
2023/02/06 06:02:54;;;;;;;;;;;;;;;3.89;46.93;103885.84;5020945;28;20405;-82
2023/02/06 06:05:20;;;;;;;;;;;;;;;3.84;46.78;103880.09;5018927;28;19952;-81
2023/02/06 06:08:10;;;;;;;;;;;;;;;3.80;46.97;103885.78;5015338;28;19917;-81
2023/02/06 06:10:36;;;;;;;;;;;;;;;3.76;47.08;103890.47;5007256;28;20020;-81
2023/02/06 06:13:01;;;;;;;;;;;;;;;3.77;47.25;103884.22;5018438;28;20533;-80
2023/02/06 06:15:27;;;;;;;;;;;;;;;3.77;47.34;103881.59;5019679;28;19917;-82
2023/02/06 06:17:52;;;;;;;;;;;;;;;3.78;47.49;103891.22;5017745;28;20008;-81
2023/02/06 06:20:17;;;;;;;;;;;;;;;3.82;47.55;103892.66;5020215;28;20465;-81
2023/02/06 06:22:43;;;;;;;;;;;;;;;3.88;47.50;103881.50;5001860;28;20434;-81
2023/02/06 06:25:08;;;;;;;;;;;;;;;3.86;47.34;103872.84;5020018;28;20032;-82
2023/02/06 06:27:33;;;;;;;;;;;;;;;3.85;47.03;103875.63;5022408;28;20327;-82
2023/02/06 06:29:59;;;;;;;;;;;;;;;3.84;47.45;103874.78;5021098;28;20011;-81
2023/02/06 06:32:24;;;;;;;;;;;;;;;3.87;47.25;103879.84;5024933;28;19918;-81
2023/02/06 06:34:49;;;;;;;;;;;;;;;3.85;47.66;103880.94;5018412;28;19976;-82
2023/02/06 06:37:15;;;;;;;;;;;;;;;3.88;47.80;103891.28;5018181;28;19917;-82
2023/02/06 06:39:41;;;;;;;;;;;;;;;3.90;47.81;103895.50;5005123;28;19917;-82
2023/02/06 06:42:07;;;;;;;;;;;;;;;3.93;47.66;103900.53;5017293;28;19925;-82
2023/02/06 06:44:32;;;;;;;;;;;;;;;3.96;47.80;103903.94;5025498;28;19925;-81
2023/02/06 06:46:58;;;;;;;;;;;;;;;3.98;47.91;103905.47;5016986;28;20510;-81
2023/02/06 06:49:23;;;;;;;;;;;;;;;4.02;48.01;103903.41;5020655;28;19940;-81
2023/02/06 06:51:49;;;;;;;;;;;;;;;4.08;47.91;103909.03;5019186;28;19925;-81
2023/02/06 06:54:14;;;;;;;;;;;;;;;4.12;48.07;103909.63;5022465;28;19947;-82
2023/02/06 06:56:39;;;;;;;;;;;;;;;4.14;48.05;103905.91;5018150;28;20291;-81
2023/02/06 06:59:05;;;;;;;;;;;;;;;4.15;48.05;103915.53;5005732;28;19921;-82
2023/02/06 07:01:30;;;;;;;;;;;;;;;4.16;48.28;103922.53;5017455;28;19924;-81
2023/02/06 07:03:57;;;;;;;;;;;;;;;4.22;48.27;103919.34;5019042;28;19925;-81
2023/02/06 07:06:22;;;;;;;;;;;;;;;4.27;48.19;103918.13;5018772;28;20292;-81
2023/02/06 07:08:48;;;;;;;;;;;;;;;4.28;48.24;103915.31;5018631;28;19936;-82
2023/02/06 07:11:14;;;;;;;;;;;;;;;4.32;48.30;103902.66;5025610;28;20055;-82
2023/02/06 07:13:40;;;;;;;;;;;;;;;4.33;48.13;103897.22;5026778;28;19924;-82
2023/02/06 07:16:05;;;;;;;;;;;;;;;4.35;48.20;103905.91;5021634;28;19928;-82
2023/02/06 07:18:31;;;;;;;;;;;;;;;4.36;48.36;103907.56;5022823;28;19917;-82
2023/02/06 07:20:56;;;;;;;;;;;;;;;4.38;48.20;103918.06;5027208;28;19921;-81
2023/02/06 07:23:22;;;;;;;;;;;;;;;4.41;48.24;103917.78;5008938;28;20306;-82
2023/02/06 07:25:48;;;;;;;;;;;;;;;4.42;48.43;103908.84;5019331;28;19926;-82
2023/02/06 07:28:13;;;;;;;;;;;;;;;4.41;48.41;103900.06;5021275;28;20035;-82
2023/02/06 07:30:39;;;;;;;;;;;;;;;4.42;48.34;103915.00;5022508;28;20453;-82
2023/02/06 07:33:04;;;;;;;;;;;;;;;4.45;48.36;103925.38;5021254;28;20267;-82
2023/02/06 07:35:29;;;;;;;;;;;;;;;4.46;48.42;103918.25;5024823;28;19917;-82
2023/02/06 07:37:55;;;;;;;;;;;;;;;4.46;48.44;103924.41;5023602;28;19917;-81
2023/02/06 07:40:20;;;;;;;;;;;;;;;4.50;48.67;103925.00;5022914;28;19921;-82
2023/02/06 07:42:46;;;;;;;;;;;;;;;4.50;48.52;103920.53;5023166;28;20004;-82
2023/02/06 07:45:11;;;;;;;;;;;;;;;4.52;48.61;103920.41;5008540;28;19972;-81
2023/02/06 07:47:37;;;;;;;;;;;;;;;4.55;48.59;103920.13;5021341;28;19924;-82
2023/02/06 07:50:03;;;;;;;;;;;;;;;4.60;48.70;103922.38;5023598;28;19983;-82
2023/02/06 07:52:28;;;;;;;;;;;;;;;4.61;48.40;103927.56;5021999;28;20008;-81
2023/02/06 07:54:54;;;;;;;;;;;;;;;4.65;48.38;103931.63;5009131;28;20410;-82
2023/02/06 07:57:19;;;;;;;;;;;;;;;4.65;48.56;103928.97;5019051;28;20518;-82
2023/02/06 07:59:44;;;;;;;;;;;;;;;4.68;48.60;103938.53;5018671;28;19921;-82
2023/02/06 08:02:10;;;;;;;;;;;;;;;4.70;48.77;103939.22;5021201;28;19943;-82
2023/02/06 08:04:36;;;;;;;;;;;;;;;4.73;48.57;103944.28;5021325;28;19917;-82
2023/02/06 08:07:02;;;;;;;;;;;;;;;4.76;48.55;103949.31;5023207;28;19917;-82
2023/02/06 08:09:28;;;;;;;;;;;;;;;4.81;48.60;103939.97;5020479;28;19979;-82
2023/02/06 08:11:53;;;;;;;;;;;;;;;4.87;48.31;103929.81;5019035;28;19990;-82
2023/02/06 08:14:18;;;;;;;;;;;;;;;4.91;48.27;103926.75;5021325;28;19924;-82
2023/02/06 08:16:44;;;;;;;;;;;;;;;4.96;48.07;103940.47;5022287;28;19921;-82
2023/02/06 08:19:11;;;;;;;;;;;;;;;5.00;48.09;103949.84;5019646;28;20390;-82
2023/02/06 08:21:36;;;;;;;;;;;;;;;5.01;47.95;103945.38;5015215;28;19968;-82
2023/02/06 08:24:02;;;;;;;;;;;;;;;5.02;48.16;103942.59;5007872;28;19964;-82
2023/02/06 08:26:28;;;;;;;;;;;;;;;5.03;48.13;103948.78;5016565;28;19932;-82
2023/02/06 08:28:54;;;;;;;;;;;;;;;5.04;48.17;103953.94;5020685;28;19932;-82
2023/02/06 08:31:24;;;;;;;;;;;;;;;5.07;48.10;103956.34;5019844;28;20036;-83
2023/02/06 08:33:50;;;;;;;;;;;;;;;5.09;47.98;103956.22;5006941;28;19925;-82
2023/02/06 08:36:17;;;;;;;;;;;;;;;5.11;48.15;103962.22;5019815;28;19930;-82
2023/02/06 08:38:42;;;;;;;;;;;;;;;5.14;47.87;103968.09;5020406;28;19921;-82
2023/02/06 08:41:17;;;;;;;;;;;;;;;5.19;47.88;103966.84;5009015;28;19925;-82
2023/02/06 08:43:43;;;;;;;;;;;;;;;5.21;47.97;103964.94;5019535;28;20302;-82
2023/02/06 08:46:08;;;;;;;;;;;;;;;5.26;47.74;103970.69;5023622;28;19924;-82
2023/02/06 08:48:34;;;;;;;;;;;;;;;5.28;47.69;103977.53;4998756;28;19929;-82
2023/02/06 08:51:03;;;;;;;;;;;;;;;5.27;47.72;103977.69;5022253;28;20024;-82
2023/02/06 08:53:28;;;;;;;;;;;;;;;5.26;47.63;103979.50;5005342;28;19976;-81
2023/02/06 08:55:58;;;;;;;;;;;;;;;5.25;47.75;103982.28;5003837;28;19963;-82
2023/02/06 08:58:23;;;;;;;;;;;;;;;5.24;47.95;103977.94;5022936;28;19951;-82
2023/02/06 09:00:48;;;;;;;;;;;;;;;5.26;47.88;103986.63;5020572;28;19968;-82
2023/02/06 09:03:14;;;;;;;;;;;;;;;5.30;47.74;103998.69;5021963;28;19925;-82
2023/02/06 09:05:39;;;;;;;;;;;;;;;5.33;48.02;103987.78;5020107;28;20586;-83
2023/02/06 09:08:04;;;;;;;;;;;;;;;5.36;48.09;103982.19;5018531;28;20060;-83
2023/02/06 09:10:30;;;;;;;;;;;;;;;5.40;47.97;103987.13;5005534;28;19951;-82
2023/02/06 09:12:57;;;;;;;;;;;;;;;5.44;47.76;103980.53;5021502;28;19925;-82
2023/02/06 09:15:23;;;;;;;;;;;;;;;5.47;47.55;104000.69;5018825;28;20004;-83
2023/02/06 09:17:48;;;;;;;;;;;;;;;5.51;47.78;104012.75;5017322;28;20020;-83
2023/02/06 09:20:13;;;;;;;;;;;;;;;5.58;47.86;103997.13;5021588;28;19925;-83
2023/02/06 09:22:39;;;;;;;;;;;;;;;5.61;47.67;104007.47;5017027;28;19944;-83
2023/02/06 09:25:04;;;;;;;;;;;;;;;5.63;47.49;104021.47;5019280;28;19917;-82
2023/02/06 09:27:30;;;;;;;;;;;;;;;5.66;47.79;104000.75;5021829;28;20337;-83
2023/02/06 09:29:55;;;;;;;;;;;;;;;5.71;47.54;103998.53;5021156;28;20458;-82
2023/02/06 09:32:20;;;;;;;;;;;;;;;5.74;47.67;104010.72;5022812;28;19921;-83
2023/02/06 09:34:46;;;;;;;;;;;;;;;5.80;47.78;104004.03;5008212;28;19931;-83
2023/02/06 09:37:11;;;;;;;;;;;;;;;5.83;47.70;104022.38;5021470;28;19964;-83
2023/02/06 09:39:37;;;;;;;;;;;;;;;5.86;47.66;104006.97;5019287;28;20015;-83
2023/02/06 09:42:08;;;;;;;;;;;;;;;5.93;47.57;104012.63;5024061;28;19917;-82
2023/02/06 09:44:34;;;;;;;;;;;;;;;5.92;47.51;104014.41;5022461;28;19924;-83
2023/02/06 09:46:59;;;;;;;;;;;;;;;5.93;47.66;104016.13;5023419;28;19917;-83
2023/02/06 09:49:33;;;;;;;;;;;;;;;5.93;47.59;104036.59;5019762;28;19931;-83
2023/02/06 09:52:05;;;;;;;;;;;;;;;5.94;47.75;104040.94;5022591;28;20337;-83
2023/02/06 09:54:37;;;;;;;;;;;;;;;5.96;47.43;104042.47;5019798;28;19944;-83
2023/02/06 09:57:16;;;;;;;;;;;;;;;5.96;47.50;104068.25;5021212;28;19928;-82
2023/02/06 09:59:57;;;;;;;;;;;;;;;5.98;47.46;104056.47;5023574;28;19932;-83
2023/02/06 10:02:49;;;;;;;;;;;;;;;6.05;47.39;104072.72;5022410;28;19925;-83
2023/02/06 10:05:14;;;;;;;;;;;;;;;6.11;47.25;104069.53;5024740;28;20015;-83
2023/02/06 10:07:40;;;;;;;;;;;;;;;6.17;47.36;104060.16;5024640;28;20132;-83
2023/02/06 10:10:09;;;;;;;;;;;;;;;6.19;47.32;104045.72;5027282;28;19944;-83
2023/02/06 10:12:43;;;;;;;;;;;;;;;6.24;47.10;104054.13;5023596;28;19921;-83
2023/02/06 10:15:12;;;;;;;;;;;;;;;6.28;47.17;104055.56;5025111;28;20281;-83
2023/02/06 10:17:47;;;;;;;;;;;;;;;6.36;47.25;104053.03;5022072;28;19955;-82
2023/02/06 10:20:18;;;;;;;;;;;;;;;6.46;46.91;104052.16;5024509;28;19943;-83
2023/02/06 10:22:49;;;;;;;;;;;;;;;6.53;46.99;104037.31;5020427;28;19924;-83
2023/02/06 10:25:24;;;;;;;;;;;;;;;6.61;46.78;104037.44;5024533;28;19924;-82
2023/02/06 10:27:57;;;;;;;;;;;;;;;6.69;47.08;104028.75;5026173;28;20330;-83
2023/02/06 10:30:45;;;;;;;;;;;;;;;6.79;46.80;104025.09;5027258;28;19936;-83
2023/02/06 10:33:17;;;;;;;;;;;;;;;6.91;46.94;104015.09;5027053;28;20008;-83
2023/02/06 10:36:05;;;;;;;;;;;;;;;7.08;46.75;104024.19;5024320;28;19936;-83
2023/02/06 10:38:49;;;;;;;;;;;;;;;7.29;46.52;104027.47;5024659;28;19939;-84
2023/02/06 10:41:14;;;;;;;;;;;;;;;7.56;46.54;104016.84;5021906;28;19979;-83
2023/02/06 10:43:45;;;;;;;;;;;;;;;7.76;46.23;104016.72;5021913;28;19917;-84
2023/02/06 10:46:29;;;;;;;;;;;;;;;7.90;45.66;104013.56;5023571;28;19928;-84
2023/02/06 10:48:54;;;;;;;;;;;;;;;7.98;45.57;104032.31;5023609;28;19925;-85
2023/02/06 10:51:30;;;;;;;;;;;;;;;8.09;45.41;104041.97;5023967;28;20337;-83
2023/02/06 10:54:01;;;;;;;;;;;;;;;8.25;45.35;104041.25;5023206;28;19917;-85
2023/02/06 10:56:29;;;;;;;;;;;;;;;8.43;45.10;104045.63;5021716;28;19924;-84
2023/02/06 10:59:00;;;;;;;;;;;;;;;8.60;45.37;104045.78;5024580;28;19929;-83
2023/02/06 11:01:28;;;;;;;;;;;;;;;8.69;45.00;104032.34;5017156;28;19917;-83
2023/02/06 11:04:02;;;;;;;;;;;;;;;8.77;44.77;104035.06;5018218;28;19928;-84
2023/02/06 11:06:28;;;;;;;;;;;;;;;8.86;44.94;104024.44;5018828;28;19979;-84
2023/02/06 11:08:54;;;;;;;;;;;;;;;8.95;44.67;104020.81;5016531;28;20059;-84
2023/02/06 11:11:20;;;;;;;;;;;;;;;9.09;44.82;104034.44;5018749;28;19921;-84
2023/02/06 11:13:47;;;;;;;;;;;;;;;9.23;44.54;104040.22;5004715;28;19921;-84
2023/02/06 11:16:17;;;;;;;;;;;;;;;9.33;44.73;104040.94;5020546;28;20313;-85
2023/02/06 11:18:44;;;;;;;;;;;;;;;9.43;44.42;104030.13;5006387;28;19932;-85
2023/02/06 11:21:11;;;;;;;;;;;;;;;9.50;44.21;104034.66;5022199;28;19929;-84
2023/02/06 11:23:37;;;;;;;;;;;;;;;9.62;44.32;104045.91;5020061;28;19913;-84
2023/02/06 11:26:11;;;;;;;;;;;;;;;9.72;44.29;104052.00;5014960;28;19922;-84
2023/02/06 11:28:39;;;;;;;;;;;;;;;9.83;44.20;104045.50;5040997;28;19921;-84
2023/02/06 11:31:05;;;;;;;;;;;;;;;9.93;43.87;104049.72;5040876;28;19917;-84
2023/02/06 11:33:31;;;;;;;;;;;;;;;10.05;44.00;104052.06;5043515;28;19956;-83
2023/02/06 11:36:02;;;;;;;;;;;;;;;10.14;43.64;104048.44;5037888;28;20527;-84
2023/02/06 11:38:28;;;;;;;;;;;;;;;10.19;43.43;104043.41;5039113;28;19932;-85
2023/02/06 11:41:17;;;;;;;;;;;;;;;10.19;43.21;104030.00;5058948;28;19935;-84
2023/02/06 11:43:42;;;;;;;;;;;;;;;10.19;43.34;104035.34;5040620;28;20127;-84
2023/02/06 11:46:18;;;;;;;;;;;;;;;10.21;43.22;104030.69;5041366;28;19924;-83
2023/02/06 11:48:45;;;;;;;;;;;;;;;10.29;43.24;104042.28;5036435;28;19948;-85
2023/02/06 11:51:12;;;;;;;;;;;;;;;10.38;43.62;104032.41;5043651;28;19921;-85
2023/02/06 11:53:38;;;;;;;;;;;;;;;10.52;43.35;104021.00;5039742;28;19920;-84
2023/02/06 11:56:17;;;;;;;;;;;;;;;10.65;43.04;104019.69;5042170;28;19929;-84
2023/02/06 11:58:43;;;;;;;;;;;;;;;10.75;43.15;104017.63;5039949;28;19999;-84
2023/02/06 12:01:15;;;;;;;;;;;;;;;10.82;42.93;104024.03;5041962;28;20006;-85
2023/02/06 12:03:50;;;;;;;;;;;;;;;10.89;42.73;104017.78;5042734;28;19943;-84
2023/02/06 12:06:27;;;;;;;;;;;;;;;10.99;42.59;104009.56;5040584;28;20034;-84
2023/02/06 12:08:54;;;;;;;;;;;;;;;11.07;42.35;104011.38;5041709;28;20383;-85
2023/02/06 12:11:29;;;;;;;;;;;;;;;11.17;42.78;104009.34;5039778;28;19972;-85
2023/02/06 12:14:00;;;;;;;;;;;;;;;11.22;41.83;104016.88;5041266;28;20071;-85
2023/02/06 12:16:26;;;;;;;;;;;;;;;11.26;42.22;104008.28;5042064;28;19917;-84
2023/02/06 12:18:56;;;;;;;;;;;;;;;11.34;41.86;104010.13;5038949;28;19925;-85
2023/02/06 12:21:23;;;;;;;;;;;;;;;11.46;42.13;104004.19;5036645;28;20260;-84
2023/02/06 12:23:54;;;;;;;;;;;;;;;11.59;42.04;104005.47;5039615;28;20027;-85
2023/02/06 12:26:21;;;;;;;;;;;;;;;11.73;41.37;104004.75;5032265;28;20339;-85
2023/02/06 12:28:49;;;;;;;;;;;;;;;11.81;41.22;103996.66;5017998;28;19925;-84
2023/02/06 12:31:20;;;;;;;;;;;;;;;11.81;41.31;104004.72;5021990;28;19933;-84
2023/02/06 12:33:48;;;;;;;;;;;;;;;11.88;41.11;104004.84;5019643;28;19971;-85
2023/02/06 12:36:17;;;;;;;;;;;;;;;12.01;41.28;104005.09;5019341;28;20369;-85
2023/02/06 12:38:45;;;;;;;;;;;;;;;12.19;40.71;104008.31;5020601;28;19917;-85
2023/02/06 12:41:12;;;;;;;;;;;;;;;12.38;41.18;104009.69;5022063;28;20007;-85
2023/02/06 12:43:38;;;;;;;;;;;;;;;12.60;40.97;104021.44;5020645;28;19956;-85
2023/02/06 12:46:12;;;;;;;;;;;;;;;12.81;40.59;104018.06;5018064;28;19967;-85
2023/02/06 12:48:40;;;;;;;;;;;;;;;13.02;40.72;104016.31;5020756;28;20397;-84